sensor_id;sensor_type;location;lat;lon;timestamp;P1;P2;P0
46681;PMS5003;34101;53.430;-2.224;2023-06-19T00:00:56;33;32;
46681;PMS5003;34101;53.430;-2.224;2023-06-19T00:03:23;28;27;
46681;PMS5003;34101;53.430;-2.224;2023-06-19T00:05:51;30;30;
46681;PMS5003;34101;53.430;-2.224;2023-06-19T00:08:19;40;39;
46681;PMS5003;34101;53.430;-2.224;2023-06-19T00:10:47;37;35;
46681;PMS5003;34101;53.430;-2.224;2023-06-19T00:13:15;41;41;
46681;PMS5003;34101;53.430;-2.224;2023-06-19T00:15:42;40;40;
46681;PMS5003;34101;53.430;-2.224;2023-06-19T00:18:10;39;39;
46681;PMS5003;34101;53.430;-2.224;2023-06-19T00:20:37;46;46;
46681;PMS5003;34101;53.430;-2.224;2023-06-19T00:23:05;40;39;
46681;PMS5003;34101;53.430;-2.224;2023-06-19T00:25:33;46;43;
46681;PMS5003;34101;53.430;-2.224;2023-06-19T00:28:00;40;40;
46681;PMS5003;34101;53.430;-2.224;2023-06-19T00:30:28;33;33;
46681;PMS5003;34101;53.430;-2.224;2023-06-19T00:32:55;44;43;
46681;PMS5003;34101;53.430;-2.224;2023-06-19T00:35:23;48;46;
46681;PMS5003;34101;53.430;-2.224;2023-06-19T00:37:51;41;41;
46681;PMS5003;34101;53.430;-2.224;2023-06-19T00:40:21;44;44;
46681;PMS5003;34101;53.430;-2.224;2023-06-19T00:42:53;43;42;
46681;PMS5003;34101;53.430;-2.224;2023-06-19T00:45:21;46;44;
46681;PMS5003;34101;53.430;-2.224;2023-06-19T00:47:49;45;45;
46681;PMS5003;34101;53.430;-2.224;2023-06-19T00:50:17;46;45;
46681;PMS5003;34101;53.430;-2.224;2023-06-19T00:52:45;41;41;
46681;PMS5003;34101;53.430;-2.224;2023-06-19T00:55:12;47;45;
46681;PMS5003;34101;53.430;-2.224;2023-06-19T00:57:41;41;40;
46681;PMS5003;34101;53.430;-2.224;2023-06-19T01:00:10;35;35;
46681;PMS5003;34101;53.430;-2.224;2023-06-19T01:02:38;37;36;
46681;PMS5003;34101;53.430;-2.224;2023-06-19T01:05:06;44;44;
46681;PMS5003;34101;53.430;-2.224;2023-06-19T01:07:37;40;38;
46681;PMS5003;34101;53.430;-2.224;2023-06-19T01:10:11;38;38;
46681;PMS5003;34101;53.430;-2.224;2023-06-19T01:12:55;41;39;
46681;PMS5003;34101;53.430;-2.224;2023-06-19T01:15:27;37;37;
46681;PMS5003;34101;53.430;-2.224;2023-06-19T01:17:56;36;35;
46681;PMS5003;34101;53.430;-2.224;2023-06-19T01:20:25;35;35;
46681;PMS5003;34101;53.430;-2.224;2023-06-19T01:22:52;36;36;
46681;PMS5003;34101;53.430;-2.224;2023-06-19T01:25:20;32;31;
46681;PMS5003;34101;53.430;-2.224;2023-06-19T01:27:48;32;32;
46681;PMS5003;34101;53.430;-2.224;2023-06-19T01:30:15;36;34;
46681;PMS5003;34101;53.430;-2.224;2023-06-19T01:32:47;35;34;
46681;PMS5003;34101;53.430;-2.224;2023-06-19T01:35:27;35;35;
46681;PMS5003;34101;53.430;-2.224;2023-06-19T01:37:57;33;32;
46681;PMS5003;34101;53.430;-2.224;2023-06-19T01:40:25;33;32;
46681;PMS5003;34101;53.430;-2.224;2023-06-19T01:42:55;31;31;
46681;PMS5003;34101;53.430;-2.224;2023-06-19T01:45:22;30;30;
46681;PMS5003;34101;53.430;-2.224;2023-06-19T01:47:50;30;30;
46681;PMS5003;34101;53.430;-2.224;2023-06-19T01:50:19;30;28;
46681;PMS5003;34101;53.430;-2.224;2023-06-19T01:52:48;33;32;
46681;PMS5003;34101;53.430;-2.224;2023-06-19T01:55:17;30;29;
46681;PMS5003;34101;53.430;-2.224;2023-06-19T01:57:44;29;29;
46681;PMS5003;34101;53.430;-2.224;2023-06-19T02:00:12;28;28;
46681;PMS5003;34101;53.430;-2.224;2023-06-19T02:02:40;29;29;
46681;PMS5003;34101;53.430;-2.224;2023-06-19T02:05:08;25;25;
46681;PMS5003;34101;53.430;-2.224;2023-06-19T02:07:36;25;25;
46681;PMS5003;34101;53.430;-2.224;2023-06-19T02:10:03;27;26;
46681;PMS5003;34101;53.430;-2.224;2023-06-19T02:12:36;29;29;
46681;PMS5003;34101;53.430;-2.224;2023-06-19T02:15:05;27;24;
46681;PMS5003;34101;53.430;-2.224;2023-06-19T02:17:33;26;25;
46681;PMS5003;34101;53.430;-2.224;2023-06-19T02:20:01;26;26;
46681;PMS5003;34101;53.430;-2.224;2023-06-19T02:22:30;28;28;
46681;PMS5003;34101;53.430;-2.224;2023-06-19T02:24:57;30;29;
46681;PMS5003;34101;53.430;-2.224;2023-06-19T02:27:25;29;27;
46681;PMS5003;34101;53.430;-2.224;2023-06-19T02:29:52;29;29;
46681;PMS5003;34101;53.430;-2.224;2023-06-19T02:32:19;27;27;
46681;PMS5003;34101;53.430;-2.224;2023-06-19T02:34:46;29;26;
46681;PMS5003;34101;53.430;-2.224;2023-06-19T02:37:19;29;29;
46681;PMS5003;34101;53.430;-2.224;2023-06-19T02:39:46;26;26;
46681;PMS5003;34101;53.430;-2.224;2023-06-19T02:42:14;25;22;
46681;PMS5003;34101;53.430;-2.224;2023-06-19T02:44:42;24;24;
46681;PMS5003;34101;53.430;-2.224;2023-06-19T02:47:10;24;24;
46681;PMS5003;34101;53.430;-2.224;2023-06-19T02:49:38;25;25;
46681;PMS5003;34101;53.430;-2.224;2023-06-19T02:52:06;23;23;
46681;PMS5003;34101;53.430;-2.224;2023-06-19T02:54:35;24;24;
46681;PMS5003;34101;53.430;-2.224;2023-06-19T02:57:02;22;22;
46681;PMS5003;34101;53.430;-2.224;2023-06-19T02:59:30;22;22;
46681;PMS5003;34101;53.430;-2.224;2023-06-19T03:01:58;27;25;
46681;PMS5003;34101;53.430;-2.224;2023-06-19T03:04:25;21;21;
46681;PMS5003;34101;53.430;-2.224;2023-06-19T03:06:52;24;24;
46681;PMS5003;34101;53.430;-2.224;2023-06-19T03:09:20;19;19;
46681;PMS5003;34101;53.430;-2.224;2023-06-19T03:11:48;21;21;
46681;PMS5003;34101;53.430;-2.224;2023-06-19T03:14:15;22;22;
46681;PMS5003;34101;53.430;-2.224;2023-06-19T03:16:43;21;21;
46681;PMS5003;34101;53.430;-2.224;2023-06-19T03:19:11;22;22;
46681;PMS5003;34101;53.430;-2.224;2023-06-19T03:21:38;22;21;
46681;PMS5003;34101;53.430;-2.224;2023-06-19T03:24:06;17;17;
46681;PMS5003;34101;53.430;-2.224;2023-06-19T03:26:33;25;23;
46681;PMS5003;34101;53.430;-2.224;2023-06-19T03:29:01;23;22;
46681;PMS5003;34101;53.430;-2.224;2023-06-19T03:31:29;22;22;
46681;PMS5003;34101;53.430;-2.224;2023-06-19T03:33:56;18;18;
46681;PMS5003;34101;53.430;-2.224;2023-06-19T03:36:24;22;22;
46681;PMS5003;34101;53.430;-2.224;2023-06-19T03:38:51;20;19;
46681;PMS5003;34101;53.430;-2.224;2023-06-19T03:41:20;23;23;
46681;PMS5003;34101;53.430;-2.224;2023-06-19T03:43:47;22;22;
46681;PMS5003;34101;53.430;-2.224;2023-06-19T03:46:14;25;24;
46681;PMS5003;34101;53.430;-2.224;2023-06-19T03:48:42;20;20;
46681;PMS5003;34101;53.430;-2.224;2023-06-19T03:51:09;21;21;
46681;PMS5003;34101;53.430;-2.224;2023-06-19T03:53:36;24;24;
46681;PMS5003;34101;53.430;-2.224;2023-06-19T03:56:04;24;21;
46681;PMS5003;34101;53.430;-2.224;2023-06-19T03:58:32;23;23;
46681;PMS5003;34101;53.430;-2.224;2023-06-19T04:00:59;21;21;
46681;PMS5003;34101;53.430;-2.224;2023-06-19T04:03:27;25;24;
46681;PMS5003;34101;53.430;-2.224;2023-06-19T04:05:54;22;22;
46681;PMS5003;34101;53.430;-2.224;2023-06-19T04:08:22;27;27;
46681;PMS5003;34101;53.430;-2.224;2023-06-19T04:10:49;28;27;
46681;PMS5003;34101;53.430;-2.224;2023-06-19T04:13:22;27;24;
46681;PMS5003;34101;53.430;-2.224;2023-06-19T04:15:50;28;28;
46681;PMS5003;34101;53.430;-2.224;2023-06-19T04:18:17;24;24;
46681;PMS5003;34101;53.430;-2.224;2023-06-19T04:20:45;23;23;
46681;PMS5003;34101;53.430;-2.224;2023-06-19T04:23:12;26;24;
46681;PMS5003;34101;53.430;-2.224;2023-06-19T04:25:40;29;28;
46681;PMS5003;34101;53.430;-2.224;2023-06-19T04:28:07;28;28;
46681;PMS5003;34101;53.430;-2.224;2023-06-19T04:30:35;21;21;
46681;PMS5003;34101;53.430;-2.224;2023-06-19T04:33:02;27;25;
46681;PMS5003;34101;53.430;-2.224;2023-06-19T04:35:30;23;23;
46681;PMS5003;34101;53.430;-2.224;2023-06-19T04:37:57;23;23;
46681;PMS5003;34101;53.430;-2.224;2023-06-19T04:40:29;28;25;
46681;PMS5003;34101;53.430;-2.224;2023-06-19T04:42:57;30;28;
46681;PMS5003;34101;53.430;-2.224;2023-06-19T04:45:24;24;24;
46681;PMS5003;34101;53.430;-2.224;2023-06-19T04:47:52;27;27;
46681;PMS5003;34101;53.430;-2.224;2023-06-19T04:50:19;25;25;
46681;PMS5003;34101;53.430;-2.224;2023-06-19T04:52:46;27;26;
46681;PMS5003;34101;53.430;-2.224;2023-06-19T04:55:14;28;26;
46681;PMS5003;34101;53.430;-2.224;2023-06-19T04:57:41;27;27;
46681;PMS5003;34101;53.430;-2.224;2023-06-19T05:00:09;24;24;
46681;PMS5003;34101;53.430;-2.224;2023-06-19T05:02:37;22;22;
46681;PMS5003;34101;53.430;-2.224;2023-06-19T05:05:05;26;24;
46681;PMS5003;34101;53.430;-2.224;2023-06-19T05:07:33;24;24;
46681;PMS5003;34101;53.430;-2.224;2023-06-19T05:10:01;18;18;
46681;PMS5003;34101;53.430;-2.224;2023-06-19T05:12:30;28;25;
46681;PMS5003;34101;53.430;-2.224;2023-06-19T05:14:58;21;19;
46681;PMS5003;34101;53.430;-2.224;2023-06-19T05:17:25;21;21;
46681;PMS5003;34101;53.430;-2.224;2023-06-19T05:19:52;23;23;
46681;PMS5003;34101;53.430;-2.224;2023-06-19T05:22:20;23;22;
46681;PMS5003;34101;53.430;-2.224;2023-06-19T05:24:48;24;24;
46681;PMS5003;34101;53.430;-2.224;2023-06-19T05:27:15;19;19;
46681;PMS5003;34101;53.430;-2.224;2023-06-19T05:29:43;18;18;
46681;PMS5003;34101;53.430;-2.224;2023-06-19T05:32:10;19;19;
46681;PMS5003;34101;53.430;-2.224;2023-06-19T05:34:37;20;20;
46681;PMS5003;34101;53.430;-2.224;2023-06-19T05:37:05;18;18;
46681;PMS5003;34101;53.430;-2.224;2023-06-19T05:39:33;22;21;
46681;PMS5003;34101;53.430;-2.224;2023-06-19T05:42:01;17;17;
46681;PMS5003;34101;53.430;-2.224;2023-06-19T05:44:29;20;20;
46681;PMS5003;34101;53.430;-2.224;2023-06-19T05:46:56;20;20;
46681;PMS5003;34101;53.430;-2.224;2023-06-19T05:49:28;18;18;
46681;PMS5003;34101;53.430;-2.224;2023-06-19T05:51:56;18;17;
46681;PMS5003;34101;53.430;-2.224;2023-06-19T05:54:24;17;16;
46681;PMS5003;34101;53.430;-2.224;2023-06-19T05:56:52;16;16;
46681;PMS5003;34101;53.430;-2.224;2023-06-19T05:59:19;15;15;
46681;PMS5003;34101;53.430;-2.224;2023-06-19T06:01:46;13;13;
46681;PMS5003;34101;53.430;-2.224;2023-06-19T06:04:13;15;14;
46681;PMS5003;34101;53.430;-2.224;2023-06-19T06:06:41;18;18;
46681;PMS5003;34101;53.430;-2.224;2023-06-19T06:09:09;13;13;
46681;PMS5003;34101;53.430;-2.224;2023-06-19T06:11:36;13;13;
46681;PMS5003;34101;53.430;-2.224;2023-06-19T06:14:04;15;15;
46681;PMS5003;34101;53.430;-2.224;2023-06-19T06:16:32;13;13;
46681;PMS5003;34101;53.430;-2.224;2023-06-19T06:18:59;14;14;
46681;PMS5003;34101;53.430;-2.224;2023-06-19T06:21:26;12;12;
46681;PMS5003;34101;53.430;-2.224;2023-06-19T06:23:54;12;12;
46681;PMS5003;34101;53.430;-2.224;2023-06-19T06:26:21;16;16;
46681;PMS5003;34101;53.430;-2.224;2023-06-19T06:28:48;15;14;
46681;PMS5003;34101;53.430;-2.224;2023-06-19T06:31:16;14;14;
46681;PMS5003;34101;53.430;-2.224;2023-06-19T06:33:43;14;13;
46681;PMS5003;34101;53.430;-2.224;2023-06-19T06:36:11;14;14;
46681;PMS5003;34101;53.430;-2.224;2023-06-19T06:38:40;16;15;
46681;PMS5003;34101;53.430;-2.224;2023-06-19T06:41:13;12;12;
46681;PMS5003;34101;53.430;-2.224;2023-06-19T06:43:40;14;13;
46681;PMS5003;34101;53.430;-2.224;2023-06-19T06:46:08;13;13;
46681;PMS5003;34101;53.430;-2.224;2023-06-19T06:48:36;13;13;
46681;PMS5003;34101;53.430;-2.224;2023-06-19T06:51:04;15;14;
46681;PMS5003;34101;53.430;-2.224;2023-06-19T06:53:32;11;11;
46681;PMS5003;34101;53.430;-2.224;2023-06-19T06:55:59;15;13;
46681;PMS5003;34101;53.430;-2.224;2023-06-19T06:58:26;16;16;
46681;PMS5003;34101;53.430;-2.224;2023-06-19T07:00:53;18;17;
46681;PMS5003;34101;53.430;-2.224;2023-06-19T07:03:22;13;13;
46681;PMS5003;34101;53.430;-2.224;2023-06-19T07:05:49;14;14;
46681;PMS5003;34101;53.430;-2.224;2023-06-19T07:08:16;15;15;
46681;PMS5003;34101;53.430;-2.224;2023-06-19T07:10:43;14;13;
46681;PMS5003;34101;53.430;-2.224;2023-06-19T07:13:16;15;15;
46681;PMS5003;34101;53.430;-2.224;2023-06-19T07:15:43;13;13;
46681;PMS5003;34101;53.430;-2.224;2023-06-19T07:18:11;12;12;
46681;PMS5003;34101;53.430;-2.224;2023-06-19T07:20:38;15;15;
46681;PMS5003;34101;53.430;-2.224;2023-06-19T07:23:05;18;17;
46681;PMS5003;34101;53.430;-2.224;2023-06-19T07:25:38;13;13;
46681;PMS5003;34101;53.430;-2.224;2023-06-19T07:28:05;16;14;
46681;PMS5003;34101;53.430;-2.224;2023-06-19T07:30:32;14;14;
46681;PMS5003;34101;53.430;-2.224;2023-06-19T07:33:05;16;14;
46681;PMS5003;34101;53.430;-2.224;2023-06-19T07:35:32;12;12;
46681;PMS5003;34101;53.430;-2.224;2023-06-19T07:37:59;11;10;
46681;PMS5003;34101;53.430;-2.224;2023-06-19T07:40:27;14;12;
46681;PMS5003;34101;53.430;-2.224;2023-06-19T07:42:59;13;12;
46681;PMS5003;34101;53.430;-2.224;2023-06-19T07:45:27;13;13;
46681;PMS5003;34101;53.430;-2.224;2023-06-19T07:47:54;12;11;
46681;PMS5003;34101;53.430;-2.224;2023-06-19T07:50:22;10;10;
46681;PMS5003;34101;53.430;-2.224;2023-06-19T07:52:49;15;13;
46681;PMS5003;34101;53.430;-2.224;2023-06-19T07:55:16;11;11;
46681;PMS5003;34101;53.430;-2.224;2023-06-19T07:57:44;9;9;
46681;PMS5003;34101;53.430;-2.224;2023-06-19T08:00:12;9;9;
46681;PMS5003;34101;53.430;-2.224;2023-06-19T08:02:40;13;10;
46681;PMS5003;34101;53.430;-2.224;2023-06-19T08:05:08;10;10;
46681;PMS5003;34101;53.430;-2.224;2023-06-19T08:07:36;10;10;
46681;PMS5003;34101;53.430;-2.224;2023-06-19T08:10:04;9;9;
46681;PMS5003;34101;53.430;-2.224;2023-06-19T08:12:33;11;9;
46681;PMS5003;34101;53.430;-2.224;2023-06-19T08:15:01;9;8;
46681;PMS5003;34101;53.430;-2.224;2023-06-19T08:17:29;11;11;
46681;PMS5003;34101;53.430;-2.224;2023-06-19T08:19:56;8;8;
46681;PMS5003;34101;53.430;-2.224;2023-06-19T08:22:23;8;8;
46681;PMS5003;34101;53.430;-2.224;2023-06-19T08:24:51;13;11;
46681;PMS5003;34101;53.430;-2.224;2023-06-19T08:27:18;7;7;
46681;PMS5003;34101;53.430;-2.224;2023-06-19T08:29:46;8;8;
46681;PMS5003;34101;53.430;-2.224;2023-06-19T08:32:13;9;9;
46681;PMS5003;34101;53.430;-2.224;2023-06-19T08:34:40;10;10;
46681;PMS5003;34101;53.430;-2.224;2023-06-19T08:37:08;12;10;
46681;PMS5003;34101;53.430;-2.224;2023-06-19T08:39:35;9;9;
46681;PMS5003;34101;53.430;-2.224;2023-06-19T08:42:03;8;8;
46681;PMS5003;34101;53.430;-2.224;2023-06-19T08:44:33;6;6;
46681;PMS5003;34101;53.430;-2.224;2023-06-19T08:46:59;10;10;
46681;PMS5003;34101;53.430;-2.224;2023-06-19T08:49:29;6;6;
46681;PMS5003;34101;53.430;-2.224;2023-06-19T08:51:56;9;8;
46681;PMS5003;34101;53.430;-2.224;2023-06-19T08:54:23;10;9;
46681;PMS5003;34101;53.430;-2.224;2023-06-19T08:56:51;9;9;
46681;PMS5003;34101;53.430;-2.224;2023-06-19T08:59:19;7;7;
46681;PMS5003;34101;53.430;-2.224;2023-06-19T09:01:47;6;6;
46681;PMS5003;34101;53.430;-2.224;2023-06-19T09:04:15;8;8;
46681;PMS5003;34101;53.430;-2.224;2023-06-19T09:06:47;7;7;
46681;PMS5003;34101;53.430;-2.224;2023-06-19T09:09:15;7;7;
46681;PMS5003;34101;53.430;-2.224;2023-06-19T09:11:42;7;7;
46681;PMS5003;34101;53.430;-2.224;2023-06-19T09:14:10;5;5;
46681;PMS5003;34101;53.430;-2.224;2023-06-19T09:16:38;4;4;
46681;PMS5003;34101;53.430;-2.224;2023-06-19T09:19:06;6;3;
46681;PMS5003;34101;53.430;-2.224;2023-06-19T09:21:35;4;4;
46681;PMS5003;34101;53.430;-2.224;2023-06-19T09:24:04;5;5;
46681;PMS5003;34101;53.430;-2.224;2023-06-19T09:26:32;7;7;
46681;PMS5003;34101;53.430;-2.224;2023-06-19T09:29:09;6;6;
46681;PMS5003;34101;53.430;-2.224;2023-06-19T09:31:37;6;6;
46681;PMS5003;34101;53.430;-2.224;2023-06-19T09:34:05;7;6;
46681;PMS5003;34101;53.430;-2.224;2023-06-19T09:36:32;7;5;
46681;PMS5003;34101;53.430;-2.224;2023-06-19T09:39:01;5;5;
46681;PMS5003;34101;53.430;-2.224;2023-06-19T09:41:30;6;6;
46681;PMS5003;34101;53.430;-2.224;2023-06-19T09:43:58;5;5;
46681;PMS5003;34101;53.430;-2.224;2023-06-19T09:46:26;9;7;
46681;PMS5003;34101;53.430;-2.224;2023-06-19T09:48:57;6;6;
46681;PMS5003;34101;53.430;-2.224;2023-06-19T09:51:29;9;7;
46681;PMS5003;34101;53.430;-2.224;2023-06-19T09:54:04;5;5;
46681;PMS5003;34101;53.430;-2.224;2023-06-19T09:56:32;5;5;
46681;PMS5003;34101;53.430;-2.224;2023-06-19T09:59:00;7;6;
46681;PMS5003;34101;53.430;-2.224;2023-06-19T10:01:30;7;6;
46681;PMS5003;34101;53.430;-2.224;2023-06-19T10:04:03;7;7;
46681;PMS5003;34101;53.430;-2.224;2023-06-19T10:06:32;7;7;
46681;PMS5003;34101;53.430;-2.224;2023-06-19T10:09:14;8;6;
46681;PMS5003;34101;53.430;-2.224;2023-06-19T10:11:46;4;4;
46681;PMS5003;34101;53.430;-2.224;2023-06-19T10:14:13;6;6;
46681;PMS5003;34101;53.430;-2.224;2023-06-19T10:16:41;8;7;
46681;PMS5003;34101;53.430;-2.224;2023-06-19T10:19:11;6;6;
46681;PMS5003;34101;53.430;-2.224;2023-06-19T10:21:44;5;5;
46681;PMS5003;34101;53.430;-2.224;2023-06-19T10:24:14;6;6;
46681;PMS5003;34101;53.430;-2.224;2023-06-19T10:26:41;7;6;
46681;PMS5003;34101;53.430;-2.224;2023-06-19T10:29:13;7;5;
46681;PMS5003;34101;53.430;-2.224;2023-06-19T10:31:41;7;6;
46681;PMS5003;34101;53.430;-2.224;2023-06-19T10:34:09;9;8;
46681;PMS5003;34101;53.430;-2.224;2023-06-19T10:36:36;5;5;
46681;PMS5003;34101;53.430;-2.224;2023-06-19T10:39:03;7;7;
46681;PMS5003;34101;53.430;-2.224;2023-06-19T10:41:31;8;7;
46681;PMS5003;34101;53.430;-2.224;2023-06-19T10:43:59;5;5;
46681;PMS5003;34101;53.430;-2.224;2023-06-19T10:46:29;6;6;
46681;PMS5003;34101;53.430;-2.224;2023-06-19T10:48:57;5;5;
46681;PMS5003;34101;53.430;-2.224;2023-06-19T10:51:25;6;6;
46681;PMS5003;34101;53.430;-2.224;2023-06-19T10:53:53;5;4;
46681;PMS5003;34101;53.430;-2.224;2023-06-19T10:56:22;6;6;
46681;PMS5003;34101;53.430;-2.224;2023-06-19T10:58:56;5;4;
46681;PMS5003;34101;53.430;-2.224;2023-06-19T11:01:31;5;5;
46681;PMS5003;34101;53.430;-2.224;2023-06-19T11:03:59;4;4;
46681;PMS5003;34101;53.430;-2.224;2023-06-19T11:06:28;5;5;
46681;PMS5003;34101;53.430;-2.224;2023-06-19T11:09:01;5;5;
46681;PMS5003;34101;53.430;-2.224;2023-06-19T11:11:38;4;4;
46681;PMS5003;34101;53.430;-2.224;2023-06-19T11:14:07;6;5;
46681;PMS5003;34101;53.430;-2.224;2023-06-19T11:16:37;4;4;
46681;PMS5003;34101;53.430;-2.224;2023-06-19T11:19:06;5;5;
46681;PMS5003;34101;53.430;-2.224;2023-06-19T11:21:35;5;5;
46681;PMS5003;34101;53.430;-2.224;2023-06-19T11:24:04;4;4;
46681;PMS5003;34101;53.430;-2.224;2023-06-19T11:26:35;5;5;
46681;PMS5003;34101;53.430;-2.224;2023-06-19T11:29:13;5;5;
46681;PMS5003;34101;53.430;-2.224;2023-06-19T11:31:42;5;5;
46681;PMS5003;34101;53.430;-2.224;2023-06-19T11:34:09;5;5;
46681;PMS5003;34101;53.430;-2.224;2023-06-19T11:36:37;4;4;
46681;PMS5003;34101;53.430;-2.224;2023-06-19T11:39:08;6;4;
46681;PMS5003;34101;53.430;-2.224;2023-06-19T11:41:37;4;4;
46681;PMS5003;34101;53.430;-2.224;2023-06-19T11:44:05;3;3;
46681;PMS5003;34101;53.430;-2.224;2023-06-19T11:46:34;3;3;
46681;PMS5003;34101;53.430;-2.224;2023-06-19T11:49:10;5;5;
46681;PMS5003;34101;53.430;-2.224;2023-06-19T11:51:39;4;4;
46681;PMS5003;34101;53.430;-2.224;2023-06-19T11:54:09;3;3;
46681;PMS5003;34101;53.430;-2.224;2023-06-19T11:56:38;6;4;
46681;PMS5003;34101;53.430;-2.224;2023-06-19T11:59:06;4;4;
46681;PMS5003;34101;53.430;-2.224;2023-06-19T12:01:36;5;5;
46681;PMS5003;34101;53.430;-2.224;2023-06-19T12:04:11;4;4;
46681;PMS5003;34101;53.430;-2.224;2023-06-19T12:06:38;4;4;
46681;PMS5003;34101;53.430;-2.224;2023-06-19T12:09:05;9;7;
46681;PMS5003;34101;53.430;-2.224;2023-06-19T12:11:32;5;5;
46681;PMS5003;34101;53.430;-2.224;2023-06-19T12:14:00;3;3;
46681;PMS5003;34101;53.430;-2.224;2023-06-19T12:16:27;5;4;
46681;PMS5003;34101;53.430;-2.224;2023-06-19T12:19:00;3;3;
46681;PMS5003;34101;53.430;-2.224;2023-06-19T12:21:27;4;4;
46681;PMS5003;34101;53.430;-2.224;2023-06-19T12:23:55;6;5;
46681;PMS5003;34101;53.430;-2.224;2023-06-19T12:26:22;4;3;
46681;PMS5003;34101;53.430;-2.224;2023-06-19T12:28:50;4;4;
46681;PMS5003;34101;53.430;-2.224;2023-06-19T12:31:17;5;5;
46681;PMS5003;34101;53.430;-2.224;2023-06-19T12:33:45;3;3;
46681;PMS5003;34101;53.430;-2.224;2023-06-19T12:36:12;5;3;
46681;PMS5003;34101;53.430;-2.224;2023-06-19T12:38:41;3;3;
46681;PMS5003;34101;53.430;-2.224;2023-06-19T12:41:08;4;4;
46681;PMS5003;34101;53.430;-2.224;2023-06-19T12:43:36;4;4;
46681;PMS5003;34101;53.430;-2.224;2023-06-19T12:46:04;4;4;
46681;PMS5003;34101;53.430;-2.224;2023-06-19T12:48:31;5;3;
46681;PMS5003;34101;53.430;-2.224;2023-06-19T12:50:59;5;5;
46681;PMS5003;34101;53.430;-2.224;2023-06-19T12:53:26;5;4;
46681;PMS5003;34101;53.430;-2.224;2023-06-19T12:55:54;3;3;
46681;PMS5003;34101;53.430;-2.224;2023-06-19T12:58:23;6;4;
46681;PMS5003;34101;53.430;-2.224;2023-06-19T13:00:50;4;4;
46681;PMS5003;34101;53.430;-2.224;2023-06-19T13:03:18;2;2;
46681;PMS5003;34101;53.430;-2.224;2023-06-19T13:05:46;1;1;
46681;PMS5003;34101;53.430;-2.224;2023-06-19T13:08:13;1;1;
46681;PMS5003;34101;53.430;-2.224;2023-06-19T13:10:40;1;1;
46681;PMS5003;34101;53.430;-2.224;2023-06-19T13:13:08;2;2;
46681;PMS5003;34101;53.430;-2.224;2023-06-19T13:15:36;2;2;
46681;PMS5003;34101;53.430;-2.224;2023-06-19T13:18:04;3;3;
46681;PMS5003;34101;53.430;-2.224;2023-06-19T13:20:31;2;2;
46681;PMS5003;34101;53.430;-2.224;2023-06-19T13:22:58;2;2;
46681;PMS5003;34101;53.430;-2.224;2023-06-19T13:25:27;3;3;
46681;PMS5003;34101;53.430;-2.224;2023-06-19T13:27:54;4;4;
46681;PMS5003;34101;53.430;-2.224;2023-06-19T13:30:22;3;3;
46681;PMS5003;34101;53.430;-2.224;2023-06-19T13:32:49;2;2;
46681;PMS5003;34101;53.430;-2.224;2023-06-19T13:35:17;3;3;
46681;PMS5003;34101;53.430;-2.224;2023-06-19T13:37:44;2;2;
46681;PMS5003;34101;53.430;-2.224;2023-06-19T13:40:17;2;2;
46681;PMS5003;34101;53.430;-2.224;2023-06-19T13:42:43;2;2;
46681;PMS5003;34101;53.430;-2.224;2023-06-19T13:45:11;2;2;
46681;PMS5003;34101;53.430;-2.224;2023-06-19T13:47:38;2;2;
46681;PMS5003;34101;53.430;-2.224;2023-06-19T13:50:06;5;2;
46681;PMS5003;34101;53.430;-2.224;2023-06-19T13:52:39;3;3;
46681;PMS5003;34101;53.430;-2.224;2023-06-19T13:55:06;6;3;
46681;PMS5003;34101;53.430;-2.224;2023-06-19T13:57:34;3;3;
46681;PMS5003;34101;53.430;-2.224;2023-06-19T14:00:07;5;4;
46681;PMS5003;34101;53.430;-2.224;2023-06-19T14:02:37;4;3;
46681;PMS5003;34101;53.430;-2.224;2023-06-19T14:05:05;5;4;
46681;PMS5003;34101;53.430;-2.224;2023-06-19T14:07:34;2;2;
46681;PMS5003;34101;53.430;-2.224;2023-06-19T14:10:02;3;3;
46681;PMS5003;34101;53.430;-2.224;2023-06-19T14:12:30;3;3;
46681;PMS5003;34101;53.430;-2.224;2023-06-19T14:14:58;2;2;
46681;PMS5003;34101;53.430;-2.224;2023-06-19T14:17:25;4;4;
46681;PMS5003;34101;53.430;-2.224;2023-06-19T14:19:53;3;3;
46681;PMS5003;34101;53.430;-2.224;2023-06-19T14:22:20;4;3;
46681;PMS5003;34101;53.430;-2.224;2023-06-19T14:24:48;4;4;
46681;PMS5003;34101;53.430;-2.224;2023-06-19T14:27:16;2;2;
46681;PMS5003;34101;53.430;-2.224;2023-06-19T14:29:43;3;3;
46681;PMS5003;34101;53.430;-2.224;2023-06-19T14:32:10;3;3;
46681;PMS5003;34101;53.430;-2.224;2023-06-19T14:34:38;7;6;
46681;PMS5003;34101;53.430;-2.224;2023-06-19T14:37:05;4;4;
46681;PMS5003;34101;53.430;-2.224;2023-06-19T14:39:32;3;3;
46681;PMS5003;34101;53.430;-2.224;2023-06-19T14:42:00;2;2;
46681;PMS5003;34101;53.430;-2.224;2023-06-19T14:44:27;2;2;
46681;PMS5003;34101;53.430;-2.224;2023-06-19T14:46:55;3;3;
46681;PMS5003;34101;53.430;-2.224;2023-06-19T14:49:24;4;4;
46681;PMS5003;34101;53.430;-2.224;2023-06-19T14:51:52;3;2;
46681;PMS5003;34101;53.430;-2.224;2023-06-19T14:54:19;2;1;
46681;PMS5003;34101;53.430;-2.224;2023-06-19T14:56:47;3;3;
46681;PMS5003;34101;53.430;-2.224;2023-06-19T14:59:14;2;2;
46681;PMS5003;34101;53.430;-2.224;2023-06-19T15:01:43;4;4;
46681;PMS5003;34101;53.430;-2.224;2023-06-19T15:04:11;2;2;
46681;PMS5003;34101;53.430;-2.224;2023-06-19T15:06:39;5;2;
46681;PMS5003;34101;53.430;-2.224;2023-06-19T15:09:07;2;2;
46681;PMS5003;34101;53.430;-2.224;2023-06-19T15:11:34;2;2;
46681;PMS5003;34101;53.430;-2.224;2023-06-19T15:14:02;3;3;
46681;PMS5003;34101;53.430;-2.224;2023-06-19T15:16:29;2;2;
46681;PMS5003;34101;53.430;-2.224;2023-06-19T15:19:01;2;2;
46681;PMS5003;34101;53.430;-2.224;2023-06-19T15:21:29;4;3;
46681;PMS5003;34101;53.430;-2.224;2023-06-19T15:23:56;2;2;
46681;PMS5003;34101;53.430;-2.224;2023-06-19T15:26:29;4;2;
46681;PMS5003;34101;53.430;-2.224;2023-06-19T15:28:57;4;3;
46681;PMS5003;34101;53.430;-2.224;2023-06-19T15:31:25;3;3;
46681;PMS5003;34101;53.430;-2.224;2023-06-19T15:33:53;6;3;
46681;PMS5003;34101;53.430;-2.224;2023-06-19T15:36:21;3;3;
46681;PMS5003;34101;53.430;-2.224;2023-06-19T15:38:48;2;2;
46681;PMS5003;34101;53.430;-2.224;2023-06-19T15:41:16;3;2;
46681;PMS5003;34101;53.430;-2.224;2023-06-19T15:43:43;3;3;
46681;PMS5003;34101;53.430;-2.224;2023-06-19T15:46:11;0;0;
46681;PMS5003;34101;53.430;-2.224;2023-06-19T15:48:41;2;2;
46681;PMS5003;34101;53.430;-2.224;2023-06-19T15:51:09;3;3;
46681;PMS5003;34101;53.430;-2.224;2023-06-19T15:53:37;2;2;
46681;PMS5003;34101;53.430;-2.224;2023-06-19T15:56:10;2;2;
46681;PMS5003;34101;53.430;-2.224;2023-06-19T15:58:38;2;2;
46681;PMS5003;34101;53.430;-2.224;2023-06-19T16:01:05;4;3;
46681;PMS5003;34101;53.430;-2.224;2023-06-19T16:03:38;3;3;
46681;PMS5003;34101;53.430;-2.224;2023-06-19T16:06:05;2;2;
46681;PMS5003;34101;53.430;-2.224;2023-06-19T16:08:33;2;2;
46681;PMS5003;34101;53.430;-2.224;2023-06-19T16:11:01;2;2;
46681;PMS5003;34101;53.430;-2.224;2023-06-19T16:13:28;4;3;
46681;PMS5003;34101;53.430;-2.224;2023-06-19T16:15:56;2;2;
46681;PMS5003;34101;53.430;-2.224;2023-06-19T16:18:23;1;1;
46681;PMS5003;34101;53.430;-2.224;2023-06-19T16:20:51;3;3;
46681;PMS5003;34101;53.430;-2.224;2023-06-19T16:23:18;2;2;